Weather reports worldwide

Advertisment
Siracusa, Italy (16464): temperature & dewpoint: 09.11.2018 06:00:00 - 15.11.2018 06:00:00 (CET)Siracusa, Italy (16464): reduced air pressure: 09.11.2018 06:00:00 - 15.11.2018 06:00:00 (CET)Siracusa, Italy (16464): precipitation: 09.11.2018 06:00:00 - 15.11.2018 06:00:00 (CET)
Date & Time tt [°C] td [°C] ppp [hPa] rr [mm]
15.11.2018 06:00:00 - - - -
15.11.2018 05:00:00 11,2 8,6 1022,4 -
15.11.2018 04:00:00 11,6 9,0 1022,8 -
15.11.2018 03:00:00 11,8 8,8 1023,2 -
15.11.2018 02:00:00 12,2 9,2 1023,2 -
15.11.2018 01:00:00 12,1 9,1 1023,4 -
15.11.2018 00:00:00 12,5 9,3 1023,3 -
14.11.2018 23:00:00 12,8 9,4 1023,7 -
14.11.2018 22:00:00 13,0 9,6 1023,8 -
14.11.2018 21:00:00 13,4 9,8 1024,1 -
14.11.2018 20:00:00 14,1 9,7 1024,0 -
14.11.2018 19:00:00 15,3 10,0 1024,0 0,0
14.11.2018 18:00:00 17,7 11,4 1023,9 -
14.11.2018 17:00:00 19,5 12,2 1023,7 -
14.11.2018 16:00:00 19,9 12,1 1023,8 -
14.11.2018 15:00:00 20,2 11,9 1024,0 -
14.11.2018 14:00:00 20,7 12,6 1024,3 -
14.11.2018 13:00:00 20,4 11,8 1024,8 0,0
14.11.2018 12:00:00 20,0 12,0 1025,4 -
14.11.2018 11:00:00 20,0 12,2 1026,0 -
14.11.2018 10:00:00 19,3 12,0 1026,0 -
14.11.2018 09:00:00 17,1 15,2 1026,1 -
14.11.2018 08:00:00 13,1 11,0 1026,0 -
14.11.2018 07:00:00 11,9 9,1 1025,7 0,0
14.11.2018 06:00:00 12,3 9,5 1025,6 -
14.11.2018 05:00:00 12,7 9,7 1025,7 -
14.11.2018 04:00:00 13,1 9,5 1026,1 -
14.11.2018 03:00:00 14,0 10,0 1026,2 -
14.11.2018 02:00:00 16,0 12,1 1026,4 -
14.11.2018 01:00:00 17,5 13,1 1026,5 0,0
14.11.2018 00:00:00 18,7 11,9 1026,7 -
13.11.2018 23:00:00 19,1 12,8 1026,9 -
13.11.2018 22:00:00 15,3 11,8 1027,1 -
13.11.2018 21:00:00 15,1 10,7 1027,2 -
13.11.2018 20:00:00 15,2 9,9 1027,3 -
13.11.2018 19:00:00 - - 1027,2 0,0
13.11.2018 18:00:00 19,4 12,8 1026,8 -
13.11.2018 17:00:00 20,2 12,8 1026,5 -
13.11.2018 16:00:00 21,0 12,6 1026,4 -
13.11.2018 15:00:00 20,9 14,0 1026,3 -
13.11.2018 14:00:00 21,2 13,8 1026,7 -
13.11.2018 13:00:00 21,4 14,5 1027,3 0,0
13.11.2018 12:00:00 21,0 14,6 1027,8 -
13.11.2018 11:00:00 20,7 14,7 1028,3 -
13.11.2018 10:00:00 20,0 15,6 1028,5 -
13.11.2018 09:00:00 18,6 18,1 1028,2 -
13.11.2018 08:00:00 14,9 13,2 1028,1 -
13.11.2018 07:00:00 13,1 10,8 1027,4 -
13.11.2018 06:00:00 13,3 11,0 1027,3 -
13.11.2018 05:00:00 13,9 11,4 1027,0 -
13.11.2018 04:00:00 14,4 11,9 1027,0 -
13.11.2018 03:00:00 16,6 15,1 1027,1 -
13.11.2018 02:00:00 14,4 11,9 1027,1 -
13.11.2018 01:00:00 14,8 12,3 1026,9 -
13.11.2018 00:00:00 15,3 12,8 1027,0 -
12.11.2018 23:00:00 15,3 12,6 1027,0 -
12.11.2018 22:00:00 15,6 12,3 1027,1 -
12.11.2018 21:00:00 16,5 12,8 1027,2 -
12.11.2018 20:00:00 16,8 12,1 1026,9 -
12.11.2018 19:00:00 20,0 14,5 1026,6 0,0
12.11.2018 18:00:00 20,3 14,6 1026,3 -
12.11.2018 17:00:00 20,6 14,4 1026,0 -
12.11.2018 16:00:00 21,2 14,7 1025,9 -
12.11.2018 15:00:00 21,4 14,9 1025,8 -
12.11.2018 14:00:00 21,0 16,1 1025,7 -
12.11.2018 13:00:00 21,0 16,7 1026,0 0,0
12.11.2018 12:00:00 19,6 16,2 1026,2 -
12.11.2018 11:00:00 19,0 15,4 1026,5 -
12.11.2018 10:00:00 20,0 16,0 1026,1 -
12.11.2018 09:00:00 20,9 15,8 1025,8 -
12.11.2018 08:00:00 20,5 15,4 1025,1 -
12.11.2018 07:00:00 19,8 15,0 1024,5 -
12.11.2018 06:00:00 19,9 15,5 1024,1 -
12.11.2018 05:00:00 20,0 15,8 1023,6 -
12.11.2018 04:00:00 19,2 15,4 1023,4 -
12.11.2018 03:00:00 19,6 15,8 1023,5 -
12.11.2018 02:00:00 19,9 16,3 1023,5 -
12.11.2018 01:00:00 19,2 16,0 1023,2 -
12.11.2018 00:00:00 19,1 14,9 1023,2 -
11.11.2018 23:00:00 20,3 16,1 1023,3 -
11.11.2018 22:00:00 20,2 16,2 1023,0 -
11.11.2018 21:00:00 20,4 16,0 1022,7 -
11.11.2018 20:00:00 20,4 15,5 1022,3 -
11.11.2018 19:00:00 20,3 15,6 1022,1 0,0
11.11.2018 18:00:00 20,4 16,4 1021,5 -
11.11.2018 17:00:00 20,8 15,7 1021,0 -
11.11.2018 16:00:00 21,4 14,9 1020,4 -
11.11.2018 15:00:00 21,3 16,2 1020,0 -
11.11.2018 14:00:00 21,7 15,9 1019,7 -
11.11.2018 13:00:00 21,2 15,9 1019,7 0,0
11.11.2018 12:00:00 21,4 15,6 1019,7 -
11.11.2018 11:00:00 21,0 15,9 1019,5 -
11.11.2018 10:00:00 20,8 15,7 1019,2 -
11.11.2018 09:00:00 20,3 15,2 1018,6 -
11.11.2018 08:00:00 19,7 14,9 1017,8 -
11.11.2018 07:00:00 19,6 15,0 1017,1 -
11.11.2018 06:00:00 19,7 13,5 1016,6 -
11.11.2018 05:00:00 19,6 13,7 1016,1 -
11.11.2018 04:00:00 17,0 15,1 1016,0 -
11.11.2018 03:00:00 16,2 14,7 1016,0 -
11.11.2018 02:00:00 16,0 15,6 1016,2 -
11.11.2018 01:00:00 12,8 10,7 1016,1 -
11.11.2018 00:00:00 13,0 10,9 1015,9 -
10.11.2018 23:00:00 13,1 10,8 1015,9 -
10.11.2018 22:00:00 13,7 11,2 1015,9 -
10.11.2018 21:00:00 14,2 11,5 1015,6 -
10.11.2018 20:00:00 14,9 11,8 1015,2 -
10.11.2018 19:00:00 16,4 13,4 1014,8 -
10.11.2018 18:00:00 15,4 12,7 1014,4 -
10.11.2018 17:00:00 15,4 12,3 1014,2 -
10.11.2018 16:00:00 17,3 13,3 1014,5 -
10.11.2018 15:00:00 18,7 15,1 1014,0 -
10.11.2018 14:00:00 19,3 15,1 1014,4 -
10.11.2018 13:00:00 19,6 15,6 1015,2 0,0
10.11.2018 12:00:00 19,1 15,3 1015,7 -
10.11.2018 11:00:00 19,0 14,6 1016,4 -
10.11.2018 10:00:00 18,3 14,5 1017,0 -
10.11.2018 09:00:00 17,8 16,2 1016,9 -
10.11.2018 08:00:00 13,6 11,5 1016,9 -
10.11.2018 07:00:00 11,9 9,4 1016,6 -
10.11.2018 06:00:00 11,9 9,1 1016,7 -
10.11.2018 05:00:00 12,4 9,6 1016,8 -
10.11.2018 04:00:00 12,6 9,8 1017,1 -
10.11.2018 03:00:00 12,8 9,8 1017,5 -
10.11.2018 02:00:00 13,4 10,2 1018,0 -
10.11.2018 01:00:00 14,0 10,6 1018,2 0,0
10.11.2018 00:00:00 14,8 11,3 1018,7 -
09.11.2018 23:00:00 14,5 10,9 1019,1 -
09.11.2018 22:00:00 15,3 11,1 1019,2 -
09.11.2018 21:00:00 15,9 11,2 1019,0 -
09.11.2018 20:00:00 17,0 11,9 1019,0 -
09.11.2018 19:00:00 18,3 12,9 1018,8 0,0
09.11.2018 18:00:00 19,3 13,4 1018,5 -
09.11.2018 17:00:00 19,6 13,0 1018,4 -
09.11.2018 16:00:00 20,1 12,8 1018,6 -
09.11.2018 15:00:00 20,8 12,7 1018,7 -
09.11.2018 14:00:00 20,3 12,5 1018,9 -
09.11.2018 13:00:00 20,4 12,1 1019,5 0,0
09.11.2018 12:00:00 20,2 11,6 1020,0 -
09.11.2018 11:00:00 20,7 12,8 1020,8 -
09.11.2018 10:00:00 19,5 13,3 1020,8 -
09.11.2018 09:00:00 17,2 14,8 1020,8 -
09.11.2018 08:00:00 13,0 10,7 1020,9 -
09.11.2018 07:00:00 11,3 8,7 1020,6 0,0
09.11.2018 06:00:00 11,2 8,4 1020,5 -

tt = temperature
td = dewpoint
ppp = reduced air pressure
rr = precipitation

Next stations